sensor_id;sensor_type;location;lat;lon;timestamp;temperature;humidity
29777;DHT22;16677;52.224;7.484;2022-07-24T00:02:23;17.20;84.40
29777;DHT22;16677;52.224;7.484;2022-07-24T00:04:52;17.20;80.70
29777;DHT22;16677;52.224;7.484;2022-07-24T00:07:24;17.10;77.30
29777;DHT22;16677;52.224;7.484;2022-07-24T00:09:51;17.10;79.60
29777;DHT22;16677;52.224;7.484;2022-07-24T00:12:20;17.10;84.20
29777;DHT22;16677;52.224;7.484;2022-07-24T00:14:47;17.00;84.50
29777;DHT22;16677;52.224;7.484;2022-07-24T00:17:14;17.00;86.50
29777;DHT22;16677;52.224;7.484;2022-07-24T00:19:41;17.00;84.30
29777;DHT22;16677;52.224;7.484;2022-07-24T00:22:08;17.00;81.90
29777;DHT22;16677;52.224;7.484;2022-07-24T00:24:35;17.10;82.90
29777;DHT22;16677;52.224;7.484;2022-07-24T00:27:02;17.00;83.20
29777;DHT22;16677;52.224;7.484;2022-07-24T00:29:29;17.00;84.00
29777;DHT22;16677;52.224;7.484;2022-07-24T00:31:56;17.00;80.70
29777;DHT22;16677;52.224;7.484;2022-07-24T00:34:23;16.90;83.10
29777;DHT22;16677;52.224;7.484;2022-07-24T00:36:50;16.90;84.40
29777;DHT22;16677;52.224;7.484;2022-07-24T00:39:17;16.90;85.80
29777;DHT22;16677;52.224;7.484;2022-07-24T00:41:44;16.80;90.90
29777;DHT22;16677;52.224;7.484;2022-07-24T00:44:15;16.90;90.00
29777;DHT22;16677;52.224;7.484;2022-07-24T00:46:44;16.90;86.30
29777;DHT22;16677;52.224;7.484;2022-07-24T00:49:13;16.90;88.20
29777;DHT22;16677;52.224;7.484;2022-07-24T00:51:49;16.90;87.70
29777;DHT22;16677;52.224;7.484;2022-07-24T00:54:18;16.80;93.50
29777;DHT22;16677;52.224;7.484;2022-07-24T00:56:48;16.80;92.20
29777;DHT22;16677;52.224;7.484;2022-07-24T00:59:15;16.70;92.80
29777;DHT22;16677;52.224;7.484;2022-07-24T01:01:43;16.80;92.80
29777;DHT22;16677;52.224;7.484;2022-07-24T01:04:10;16.80;91.00
29777;DHT22;16677;52.224;7.484;2022-07-24T01:06:42;16.80;90.50
29777;DHT22;16677;52.224;7.484;2022-07-24T01:09:10;16.80;91.80
29777;DHT22;16677;52.224;7.484;2022-07-24T01:11:41;16.80;89.10
29777;DHT22;16677;52.224;7.484;2022-07-24T01:14:09;16.80;88.50
29777;DHT22;16677;52.224;7.484;2022-07-24T01:16:38;16.80;86.10
29777;DHT22;16677;52.224;7.484;2022-07-24T01:19:05;16.70;84.60
29777;DHT22;16677;52.224;7.484;2022-07-24T01:21:32;16.80;88.80
29777;DHT22;16677;52.224;7.484;2022-07-24T01:23:59;16.70;89.00
29777;DHT22;16677;52.224;7.484;2022-07-24T01:26:26;16.70;90.80
29777;DHT22;16677;52.224;7.484;2022-07-24T01:28:53;16.70;92.50
29777;DHT22;16677;52.224;7.484;2022-07-24T01:31:20;16.60;92.20
29777;DHT22;16677;52.224;7.484;2022-07-24T01:33:47;16.60;95.30
29777;DHT22;16677;52.224;7.484;2022-07-24T01:36:14;16.60;94.10
29777;DHT22;16677;52.224;7.484;2022-07-24T01:38:41;16.60;94.10
29777;DHT22;16677;52.224;7.484;2022-07-24T01:41:08;16.60;93.80
29777;DHT22;16677;52.224;7.484;2022-07-24T01:43:35;16.60;95.70
29777;DHT22;16677;52.224;7.484;2022-07-24T01:46:02;16.60;95.50
29777;DHT22;16677;52.224;7.484;2022-07-24T01:48:29;16.50;94.20
29777;DHT22;16677;52.224;7.484;2022-07-24T01:50:56;16.50;94.70
29777;DHT22;16677;52.224;7.484;2022-07-24T01:53:23;16.40;96.20
29777;DHT22;16677;52.224;7.484;2022-07-24T01:55:51;16.40;97.60
29777;DHT22;16677;52.224;7.484;2022-07-24T01:58:19;16.40;97.10
29777;DHT22;16677;52.224;7.484;2022-07-24T02:00:49;16.40;96.50
29777;DHT22;16677;52.224;7.484;2022-07-24T02:03:17;16.40;98.10
29777;DHT22;16677;52.224;7.484;2022-07-24T02:05:44;16.40;96.90
29777;DHT22;16677;52.224;7.484;2022-07-24T02:08:11;16.30;98.00
29777;DHT22;16677;52.224;7.484;2022-07-24T02:10:38;16.30;99.40
29777;DHT22;16677;52.224;7.484;2022-07-24T02:13:06;16.30;99.90
29777;DHT22;16677;52.224;7.484;2022-07-24T02:15:33;16.30;98.80
29777;DHT22;16677;52.224;7.484;2022-07-24T02:18:01;16.30;99.50
29777;DHT22;16677;52.224;7.484;2022-07-24T02:20:29;16.20;99.90
29777;DHT22;16677;52.224;7.484;2022-07-24T02:22:56;16.20;99.90
29777;DHT22;16677;52.224;7.484;2022-07-24T02:25:23;16.20;99.90
29777;DHT22;16677;52.224;7.484;2022-07-24T02:27:50;16.20;99.90
29777;DHT22;16677;52.224;7.484;2022-07-24T02:30:20;16.30;99.90
29777;DHT22;16677;52.224;7.484;2022-07-24T02:32:48;16.20;99.90
29777;DHT22;16677;52.224;7.484;2022-07-24T02:35:15;16.10;99.90
29777;DHT22;16677;52.224;7.484;2022-07-24T02:37:43;16.10;99.90
29777;DHT22;16677;52.224;7.484;2022-07-24T02:40:12;16.10;99.90
29777;DHT22;16677;52.224;7.484;2022-07-24T02:42:40;16.00;99.90
29777;DHT22;16677;52.224;7.484;2022-07-24T02:45:07;15.90;99.90
29777;DHT22;16677;52.224;7.484;2022-07-24T02:47:35;15.90;99.90
29777;DHT22;16677;52.224;7.484;2022-07-24T02:50:03;15.90;99.90
29777;DHT22;16677;52.224;7.484;2022-07-24T02:52:30;15.90;99.90
29777;DHT22;16677;52.224;7.484;2022-07-24T02:54:57;16.00;99.90
29777;DHT22;16677;52.224;7.484;2022-07-24T02:57:24;16.00;99.90
29777;DHT22;16677;52.224;7.484;2022-07-24T02:59:51;15.90;99.90
29777;DHT22;16677;52.224;7.484;2022-07-24T03:02:19;15.90;99.90
29777;DHT22;16677;52.224;7.484;2022-07-24T03:04:46;15.90;99.90
29777;DHT22;16677;52.224;7.484;2022-07-24T03:07:14;15.90;99.90
29777;DHT22;16677;52.224;7.484;2022-07-24T03:09:41;15.90;99.90
29777;DHT22;16677;52.224;7.484;2022-07-24T03:12:08;15.90;99.90
29777;DHT22;16677;52.224;7.484;2022-07-24T03:14:35;15.90;99.90
29777;DHT22;16677;52.224;7.484;2022-07-24T03:17:04;15.90;99.90
29777;DHT22;16677;52.224;7.484;2022-07-24T03:19:32;15.90;99.90
29777;DHT22;16677;52.224;7.484;2022-07-24T03:21:59;15.90;99.90
29777;DHT22;16677;52.224;7.484;2022-07-24T03:24:25;15.80;99.90
29777;DHT22;16677;52.224;7.484;2022-07-24T03:26:52;15.80;99.90
29777;DHT22;16677;52.224;7.484;2022-07-24T03:29:19;15.90;99.90
29777;DHT22;16677;52.224;7.484;2022-07-24T03:31:46;15.80;99.90
29777;DHT22;16677;52.224;7.484;2022-07-24T03:34:14;15.80;99.90
29777;DHT22;16677;52.224;7.484;2022-07-24T03:36:41;15.80;99.90
29777;DHT22;16677;52.224;7.484;2022-07-24T03:39:08;15.80;99.90
29777;DHT22;16677;52.224;7.484;2022-07-24T03:41:35;15.80;99.90
29777;DHT22;16677;52.224;7.484;2022-07-24T03:44:02;15.80;99.90
29777;DHT22;16677;52.224;7.484;2022-07-24T03:46:29;15.80;99.90
29777;DHT22;16677;52.224;7.484;2022-07-24T03:48:56;15.80;99.90
29777;DHT22;16677;52.224;7.484;2022-07-24T03:51:24;15.80;99.90
29777;DHT22;16677;52.224;7.484;2022-07-24T03:53:52;15.80;99.90
29777;DHT22;16677;52.224;7.484;2022-07-24T03:56:21;15.80;99.90
29777;DHT22;16677;52.224;7.484;2022-07-24T03:58:52;15.70;99.90
29777;DHT22;16677;52.224;7.484;2022-07-24T04:01:19;15.80;99.90
29777;DHT22;16677;52.224;7.484;2022-07-24T04:03:47;15.80;99.90
29777;DHT22;16677;52.224;7.484;2022-07-24T04:06:15;15.90;99.90
29777;DHT22;16677;52.224;7.484;2022-07-24T04:08:42;16.00;99.90
29777;DHT22;16677;52.224;7.484;2022-07-24T04:11:09;16.20;99.90
29777;DHT22;16677;52.224;7.484;2022-07-24T04:13:35;16.40;99.90
29777;DHT22;16677;52.224;7.484;2022-07-24T04:16:08;16.60;98.90
29777;DHT22;16677;52.224;7.484;2022-07-24T04:18:36;16.50;94.70
29777;DHT22;16677;52.224;7.484;2022-07-24T04:21:03;16.60;97.10
29777;DHT22;16677;52.224;7.484;2022-07-24T04:23:30;16.50;95.80
29777;DHT22;16677;52.224;7.484;2022-07-24T04:25:57;16.60;95.90
29777;DHT22;16677;52.224;7.484;2022-07-24T04:28:24;16.60;92.90
29777;DHT22;16677;52.224;7.484;2022-07-24T04:30:52;16.60;95.60
29777;DHT22;16677;52.224;7.484;2022-07-24T04:33:19;16.70;92.90
29777;DHT22;16677;52.224;7.484;2022-07-24T04:35:46;16.80;91.30
29777;DHT22;16677;52.224;7.484;2022-07-24T04:38:13;16.80;91.60
29777;DHT22;16677;52.224;7.484;2022-07-24T04:40:41;16.90;90.00
29777;DHT22;16677;52.224;7.484;2022-07-24T04:43:08;17.10;84.70
29777;DHT22;16677;52.224;7.484;2022-07-24T04:45:37;17.30;70.70
29777;DHT22;16677;52.224;7.484;2022-07-24T04:48:05;17.40;61.00
29777;DHT22;16677;52.224;7.484;2022-07-24T04:50:32;17.50;55.20
29777;DHT22;16677;52.224;7.484;2022-07-24T04:52:59;17.60;52.00
29777;DHT22;16677;52.224;7.484;2022-07-24T04:55:26;17.60;52.30
29777;DHT22;16677;52.224;7.484;2022-07-24T04:57:53;17.70;47.40
29777;DHT22;16677;52.224;7.484;2022-07-24T05:00:20;17.80;45.10
29777;DHT22;16677;52.224;7.484;2022-07-24T05:02:47;17.70;42.00
29777;DHT22;16677;52.224;7.484;2022-07-24T05:05:14;17.70;42.20
29777;DHT22;16677;52.224;7.484;2022-07-24T05:07:42;17.90;46.50
29777;DHT22;16677;52.224;7.484;2022-07-24T05:10:09;17.90;38.00
29777;DHT22;16677;52.224;7.484;2022-07-24T05:12:36;18.40;26.70
29777;DHT22;16677;52.224;7.484;2022-07-24T05:15:04;18.60;18.80
29777;DHT22;16677;52.224;7.484;2022-07-24T05:17:33;19.10;11.90
29777;DHT22;16677;52.224;7.484;2022-07-24T05:20:00;19.50;1.00
29777;DHT22;16677;52.224;7.484;2022-07-24T05:22:27;19.50;1.00
29777;DHT22;16677;52.224;7.484;2022-07-24T05:24:54;19.40;1.00
29777;DHT22;16677;52.224;7.484;2022-07-24T05:27:21;19.40;1.00
29777;DHT22;16677;52.224;7.484;2022-07-24T05:29:48;19.70;1.00
29777;DHT22;16677;52.224;7.484;2022-07-24T05:32:15;20.10;1.00
29777;DHT22;16677;52.224;7.484;2022-07-24T05:34:42;20.40;1.00
29777;DHT22;16677;52.224;7.484;2022-07-24T05:37:09;20.80;1.00
29777;DHT22;16677;52.224;7.484;2022-07-24T05:39:36;20.60;1.00
29777;DHT22;16677;52.224;7.484;2022-07-24T05:42:03;20.90;1.00
29777;DHT22;16677;52.224;7.484;2022-07-24T05:44:30;20.70;1.00
29777;DHT22;16677;52.224;7.484;2022-07-24T05:46:58;20.60;1.00
29777;DHT22;16677;52.224;7.484;2022-07-24T05:49:25;20.90;1.00
29777;DHT22;16677;52.224;7.484;2022-07-24T05:51:52;20.90;1.00
29777;DHT22;16677;52.224;7.484;2022-07-24T05:54:19;21.30;1.00
29777;DHT22;16677;52.224;7.484;2022-07-24T05:56:46;21.70;1.00
29777;DHT22;16677;52.224;7.484;2022-07-24T05:59:13;21.70;1.00
29777;DHT22;16677;52.224;7.484;2022-07-24T06:01:41;21.80;1.00
29777;DHT22;16677;52.224;7.484;2022-07-24T06:04:09;21.90;1.00
29777;DHT22;16677;52.224;7.484;2022-07-24T06:06:36;21.70;1.00
29777;DHT22;16677;52.224;7.484;2022-07-24T06:09:03;21.80;1.00
29777;DHT22;16677;52.224;7.484;2022-07-24T06:11:31;22.00;1.00
29777;DHT22;16677;52.224;7.484;2022-07-24T06:13:59;22.20;1.00
29777;DHT22;16677;52.224;7.484;2022-07-24T06:16:26;22.10;1.00
29777;DHT22;16677;52.224;7.484;2022-07-24T06:18:53;22.20;1.00
29777;DHT22;16677;52.224;7.484;2022-07-24T06:21:20;21.90;1.00
29777;DHT22;16677;52.224;7.484;2022-07-24T06:23:47;21.90;1.00
29777;DHT22;16677;52.224;7.484;2022-07-24T06:26:14;22.00;1.00
29777;DHT22;16677;52.224;7.484;2022-07-24T06:28:41;22.60;1.00
29777;DHT22;16677;52.224;7.484;2022-07-24T06:31:08;22.40;1.00
29777;DHT22;16677;52.224;7.484;2022-07-24T06:33:43;22.60;1.00
29777;DHT22;16677;52.224;7.484;2022-07-24T06:36:10;23.00;1.00
29777;DHT22;16677;52.224;7.484;2022-07-24T06:38:37;23.30;1.00
29777;DHT22;16677;52.224;7.484;2022-07-24T06:41:04;23.50;1.00
29777;DHT22;16677;52.224;7.484;2022-07-24T06:43:31;23.70;1.00
29777;DHT22;16677;52.224;7.484;2022-07-24T06:45:58;23.90;1.00
29777;DHT22;16677;52.224;7.484;2022-07-24T06:48:25;24.00;1.00
29777;DHT22;16677;52.224;7.484;2022-07-24T06:50:52;24.50;1.00
29777;DHT22;16677;52.224;7.484;2022-07-24T06:53:19;24.70;1.00
29777;DHT22;16677;52.224;7.484;2022-07-24T06:55:46;24.40;1.00
29777;DHT22;16677;52.224;7.484;2022-07-24T06:58:14;24.50;1.00
29777;DHT22;16677;52.224;7.484;2022-07-24T07:00:41;24.40;1.00
29777;DHT22;16677;52.224;7.484;2022-07-24T07:03:08;23.90;1.00
29777;DHT22;16677;52.224;7.484;2022-07-24T07:05:35;24.00;1.00
29777;DHT22;16677;52.224;7.484;2022-07-24T07:08:02;23.60;1.00
29777;DHT22;16677;52.224;7.484;2022-07-24T07:10:29;23.70;1.00
29777;DHT22;16677;52.224;7.484;2022-07-24T07:12:56;24.10;1.00
29777;DHT22;16677;52.224;7.484;2022-07-24T07:15:23;23.90;1.00
29777;DHT22;16677;52.224;7.484;2022-07-24T07:17:50;24.10;1.00
29777;DHT22;16677;52.224;7.484;2022-07-24T07:20:17;24.60;1.00
29777;DHT22;16677;52.224;7.484;2022-07-24T07:22:44;25.00;1.00
29777;DHT22;16677;52.224;7.484;2022-07-24T07:25:11;24.60;1.00
29777;DHT22;16677;52.224;7.484;2022-07-24T07:27:38;25.20;1.00
29777;DHT22;16677;52.224;7.484;2022-07-24T07:30:07;25.70;1.00
29777;DHT22;16677;52.224;7.484;2022-07-24T07:32:34;25.30;1.00
29777;DHT22;16677;52.224;7.484;2022-07-24T07:35:02;25.40;1.00
29777;DHT22;16677;52.224;7.484;2022-07-24T07:37:30;25.20;1.00
29777;DHT22;16677;52.224;7.484;2022-07-24T07:39:57;25.20;1.00
29777;DHT22;16677;52.224;7.484;2022-07-24T07:42:25;25.10;1.00
29777;DHT22;16677;52.224;7.484;2022-07-24T07:44:52;25.50;1.00
29777;DHT22;16677;52.224;7.484;2022-07-24T07:47:19;25.80;1.00
29777;DHT22;16677;52.224;7.484;2022-07-24T07:49:46;26.00;1.00
29777;DHT22;16677;52.224;7.484;2022-07-24T07:52:13;25.70;1.00
29777;DHT22;16677;52.224;7.484;2022-07-24T07:54:41;25.70;1.00
29777;DHT22;16677;52.224;7.484;2022-07-24T07:57:08;25.90;1.00
29777;DHT22;16677;52.224;7.484;2022-07-24T07:59:35;26.20;1.00
29777;DHT22;16677;52.224;7.484;2022-07-24T08:02:01;25.70;1.00
29777;DHT22;16677;52.224;7.484;2022-07-24T08:04:29;25.80;1.00
29777;DHT22;16677;52.224;7.484;2022-07-24T08:06:58;26.30;1.00
29777;DHT22;16677;52.224;7.484;2022-07-24T08:09:25;26.30;1.00
29777;DHT22;16677;52.224;7.484;2022-07-24T08:11:52;26.40;1.00
29777;DHT22;16677;52.224;7.484;2022-07-24T08:14:19;26.20;1.00
29777;DHT22;16677;52.224;7.484;2022-07-24T08:16:46;25.90;1.00
29777;DHT22;16677;52.224;7.484;2022-07-24T08:19:13;25.70;1.00
29777;DHT22;16677;52.224;7.484;2022-07-24T08:21:39;25.40;1.00
29777;DHT22;16677;52.224;7.484;2022-07-24T08:24:07;26.00;1.00
29777;DHT22;16677;52.224;7.484;2022-07-24T08:26:34;25.80;1.00
29777;DHT22;16677;52.224;7.484;2022-07-24T08:29:01;25.40;1.00
29777;DHT22;16677;52.224;7.484;2022-07-24T08:31:28;25.30;1.00
29777;DHT22;16677;52.224;7.484;2022-07-24T08:33:56;25.70;1.00
29777;DHT22;16677;52.224;7.484;2022-07-24T08:36:23;26.20;1.00
29777;DHT22;16677;52.224;7.484;2022-07-24T08:38:49;26.00;1.00
29777;DHT22;16677;52.224;7.484;2022-07-24T08:41:18;25.80;1.00
29777;DHT22;16677;52.224;7.484;2022-07-24T08:43:52;25.80;1.00
29777;DHT22;16677;52.224;7.484;2022-07-24T08:46:20;25.50;1.00
29777;DHT22;16677;52.224;7.484;2022-07-24T08:48:49;25.00;1.00
29777;DHT22;16677;52.224;7.484;2022-07-24T08:51:17;25.60;1.00
29777;DHT22;16677;52.224;7.484;2022-07-24T08:53:44;25.20;1.00
29777;DHT22;16677;52.224;7.484;2022-07-24T08:56:11;25.10;1.00
29777;DHT22;16677;52.224;7.484;2022-07-24T08:58:39;25.00;1.00
29777;DHT22;16677;52.224;7.484;2022-07-24T09:01:07;25.10;1.00
29777;DHT22;16677;52.224;7.484;2022-07-24T09:03:41;25.50;1.00
29777;DHT22;16677;52.224;7.484;2022-07-24T09:06:10;25.30;1.00
29777;DHT22;16677;52.224;7.484;2022-07-24T09:08:42;25.50;1.00
29777;DHT22;16677;52.224;7.484;2022-07-24T09:11:10;25.50;1.00
29777;DHT22;16677;52.224;7.484;2022-07-24T09:13:37;26.20;1.00
29777;DHT22;16677;52.224;7.484;2022-07-24T09:16:26;26.20;1.00
29777;DHT22;16677;52.224;7.484;2022-07-24T09:19:08;25.70;1.00
29777;DHT22;16677;52.224;7.484;2022-07-24T09:21:42;25.60;1.00
29777;DHT22;16677;52.224;7.484;2022-07-24T09:24:21;25.60;1.00
29777;DHT22;16677;52.224;7.484;2022-07-24T09:26:54;25.60;1.00
29777;DHT22;16677;52.224;7.484;2022-07-24T09:29:24;26.20;1.00
29777;DHT22;16677;52.224;7.484;2022-07-24T09:32:00;26.50;1.00
29777;DHT22;16677;52.224;7.484;2022-07-24T09:34:29;26.90;1.00
29777;DHT22;16677;52.224;7.484;2022-07-24T09:37:06;26.40;1.00
29777;DHT22;16677;52.224;7.484;2022-07-24T09:39:35;26.00;1.00
29777;DHT22;16677;52.224;7.484;2022-07-24T09:42:05;26.40;1.00
29777;DHT22;16677;52.224;7.484;2022-07-24T09:44:33;26.10;1.00
29777;DHT22;16677;52.224;7.484;2022-07-24T09:47:04;26.90;1.00
29777;DHT22;16677;52.224;7.484;2022-07-24T09:49:31;27.20;1.00
29777;DHT22;16677;52.224;7.484;2022-07-24T09:52:15;26.80;1.00
29777;DHT22;16677;52.224;7.484;2022-07-24T09:54:46;26.80;1.00
29777;DHT22;16677;52.224;7.484;2022-07-24T09:57:26;26.80;1.00
29777;DHT22;16677;52.224;7.484;2022-07-24T10:00:00;26.60;1.00
29777;DHT22;16677;52.224;7.484;2022-07-24T10:02:32;26.90;1.00
29777;DHT22;16677;52.224;7.484;2022-07-24T10:05:02;27.10;1.00
29777;DHT22;16677;52.224;7.484;2022-07-24T10:07:30;26.80;1.00
29777;DHT22;16677;52.224;7.484;2022-07-24T10:10:03;26.50;1.00
29777;DHT22;16677;52.224;7.484;2022-07-24T10:12:31;26.60;1.00
29777;DHT22;16677;52.224;7.484;2022-07-24T10:15:00;27.00;1.00
29777;DHT22;16677;52.224;7.484;2022-07-24T10:20:37;27.10;1.00
29777;DHT22;16677;52.224;7.484;2022-07-24T10:23:24;27.10;1.00
29777;DHT22;16677;52.224;7.484;2022-07-24T10:25:54;27.20;1.00
29777;DHT22;16677;52.224;7.484;2022-07-24T10:28:48;27.30;1.00
29777;DHT22;16677;52.224;7.484;2022-07-24T10:31:20;27.40;1.00
29777;DHT22;16677;52.224;7.484;2022-07-24T10:33:52;27.30;1.00
29777;DHT22;16677;52.224;7.484;2022-07-24T10:36:26;27.50;1.00
29777;DHT22;16677;52.224;7.484;2022-07-24T10:39:13;28.10;1.00
29777;DHT22;16677;52.224;7.484;2022-07-24T10:41:40;28.00;1.00
29777;DHT22;16677;52.224;7.484;2022-07-24T10:44:17;26.70;1.00
29777;DHT22;16677;52.224;7.484;2022-07-24T10:49:39;27.10;1.00
29777;DHT22;16677;52.224;7.484;2022-07-24T10:52:31;27.30;1.00
29777;DHT22;16677;52.224;7.484;2022-07-24T10:55:18;27.50;1.00
29777;DHT22;16677;52.224;7.484;2022-07-24T11:00:40;27.10;1.00
29777;DHT22;16677;52.224;7.484;2022-07-24T11:08:51;27.00;1.00
29777;DHT22;16677;52.224;7.484;2022-07-24T11:11:22;26.80;1.00
29777;DHT22;16677;52.224;7.484;2022-07-24T11:13:54;27.10;1.00
29777;DHT22;16677;52.224;7.484;2022-07-24T11:16:26;27.20;1.00
29777;DHT22;16677;52.224;7.484;2022-07-24T11:21:44;27.00;1.00
29777;DHT22;16677;52.224;7.484;2022-07-24T11:26:54;27.80;1.00
29777;DHT22;16677;52.224;7.484;2022-07-24T11:29:28;28.10;1.00
29777;DHT22;16677;52.224;7.484;2022-07-24T11:34:29;28.00;1.00
29777;DHT22;16677;52.224;7.484;2022-07-24T11:36:57;28.50;1.00
29777;DHT22;16677;52.224;7.484;2022-07-24T11:39:34;28.60;1.00
29777;DHT22;16677;52.224;7.484;2022-07-24T11:42:06;28.90;1.00
29777;DHT22;16677;52.224;7.484;2022-07-24T11:44:40;28.50;1.00
29777;DHT22;16677;52.224;7.484;2022-07-24T11:47:16;28.30;1.00
29777;DHT22;16677;52.224;7.484;2022-07-24T11:49:48;28.40;1.00
29777;DHT22;16677;52.224;7.484;2022-07-24T11:52:20;28.10;1.00
29777;DHT22;16677;52.224;7.484;2022-07-24T11:54:55;28.10;1.00
29777;DHT22;16677;52.224;7.484;2022-07-24T11:57:33;27.80;1.00
29777;DHT22;16677;52.224;7.484;2022-07-24T12:00:26;28.20;1.00
29777;DHT22;16677;52.224;7.484;2022-07-24T12:02:59;28.10;1.00
29777;DHT22;16677;52.224;7.484;2022-07-24T12:05:33;28.40;1.00
29777;DHT22;16677;52.224;7.484;2022-07-24T12:08:02;28.80;1.00
29777;DHT22;16677;52.224;7.484;2022-07-24T12:10:30;28.40;1.00
29777;DHT22;16677;52.224;7.484;2022-07-24T12:12:57;28.60;1.00
29777;DHT22;16677;52.224;7.484;2022-07-24T12:15:25;28.90;1.00
29777;DHT22;16677;52.224;7.484;2022-07-24T12:18:04;28.80;1.00
29777;DHT22;16677;52.224;7.484;2022-07-24T12:20:40;28.40;1.00
29777;DHT22;16677;52.224;7.484;2022-07-24T12:23:11;28.40;1.00
29777;DHT22;16677;52.224;7.484;2022-07-24T12:25:39;28.70;1.00
29777;DHT22;16677;52.224;7.484;2022-07-24T12:28:09;28.80;1.00
29777;DHT22;16677;52.224;7.484;2022-07-24T12:30:42;29.10;1.00
29777;DHT22;16677;52.224;7.484;2022-07-24T12:33:25;29.40;1.00
29777;DHT22;16677;52.224;7.484;2022-07-24T12:36:07;28.90;1.00
29777;DHT22;16677;52.224;7.484;2022-07-24T12:38:51;29.00;1.00
29777;DHT22;16677;52.224;7.484;2022-07-24T12:41:20;29.40;1.00
29777;DHT22;16677;52.224;7.484;2022-07-24T12:44:02;29.60;1.00
29777;DHT22;16677;52.224;7.484;2022-07-24T12:49:09;29.60;1.00
29777;DHT22;16677;52.224;7.484;2022-07-24T12:54:28;29.30;1.00
29777;DHT22;16677;52.224;7.484;2022-07-24T12:57:07;29.50;1.00
29777;DHT22;16677;52.224;7.484;2022-07-24T12:59:47;29.80;1.00
29777;DHT22;16677;52.224;7.484;2022-07-24T13:02:19;30.10;1.00
29777;DHT22;16677;52.224;7.484;2022-07-24T13:04:48;29.60;1.00
29777;DHT22;16677;52.224;7.484;2022-07-24T13:07:17;29.60;1.00
29777;DHT22;16677;52.224;7.484;2022-07-24T13:09:45;30.00;1.00
29777;DHT22;16677;52.224;7.484;2022-07-24T13:12:12;29.90;1.00
29777;DHT22;16677;52.224;7.484;2022-07-24T13:14:39;30.00;1.00
29777;DHT22;16677;52.224;7.484;2022-07-24T13:17:14;29.90;1.00
29777;DHT22;16677;52.224;7.484;2022-07-24T13:19:43;30.20;1.00
29777;DHT22;16677;52.224;7.484;2022-07-24T13:22:11;29.40;1.00
29777;DHT22;16677;52.224;7.484;2022-07-24T13:24:38;29.80;1.00
29777;DHT22;16677;52.224;7.484;2022-07-24T13:27:06;29.60;1.00
29777;DHT22;16677;52.224;7.484;2022-07-24T13:29:33;30.00;1.00
29777;DHT22;16677;52.224;7.484;2022-07-24T13:32:02;28.90;1.00
29777;DHT22;16677;52.224;7.484;2022-07-24T13:34:29;29.50;1.00
29777;DHT22;16677;52.224;7.484;2022-07-24T13:36:57;29.60;1.00
29777;DHT22;16677;52.224;7.484;2022-07-24T13:39:24;29.50;1.00
29777;DHT22;16677;52.224;7.484;2022-07-24T13:41:51;29.90;1.00
29777;DHT22;16677;52.224;7.484;2022-07-24T13:44:18;30.20;1.00
29777;DHT22;16677;52.224;7.484;2022-07-24T13:46:46;29.80;1.00
29777;DHT22;16677;52.224;7.484;2022-07-24T13:49:15;29.80;1.00
29777;DHT22;16677;52.224;7.484;2022-07-24T13:51:43;30.10;1.00
29777;DHT22;16677;52.224;7.484;2022-07-24T13:54:09;30.30;1.00
29777;DHT22;16677;52.224;7.484;2022-07-24T13:56:37;30.50;1.00
29777;DHT22;16677;52.224;7.484;2022-07-24T13:59:05;30.50;1.00
29777;DHT22;16677;52.224;7.484;2022-07-24T14:01:32;30.10;1.00
29777;DHT22;16677;52.224;7.484;2022-07-24T14:04:04;29.70;1.00
29777;DHT22;16677;52.224;7.484;2022-07-24T14:06:55;29.80;1.00
29777;DHT22;16677;52.224;7.484;2022-07-24T14:09:22;30.10;1.00
29777;DHT22;16677;52.224;7.484;2022-07-24T14:11:49;30.30;1.00
29777;DHT22;16677;52.224;7.484;2022-07-24T14:14:17;30.40;1.00
29777;DHT22;16677;52.224;7.484;2022-07-24T14:16:44;29.80;1.00
29777;DHT22;16677;52.224;7.484;2022-07-24T14:19:11;29.80;1.00
29777;DHT22;16677;52.224;7.484;2022-07-24T14:21:38;30.30;1.00
29777;DHT22;16677;52.224;7.484;2022-07-24T14:24:06;30.10;1.00
29777;DHT22;16677;52.224;7.484;2022-07-24T14:26:42;30.70;1.00
29777;DHT22;16677;52.224;7.484;2022-07-24T14:29:09;30.70;1.00
29777;DHT22;16677;52.224;7.484;2022-07-24T14:31:36;31.00;1.00
29777;DHT22;16677;52.224;7.484;2022-07-24T14:34:03;30.90;1.00
29777;DHT22;16677;52.224;7.484;2022-07-24T14:36:31;30.90;1.00
29777;DHT22;16677;52.224;7.484;2022-07-24T14:38:58;31.00;1.00
29777;DHT22;16677;52.224;7.484;2022-07-24T14:41:25;31.20;1.00
29777;DHT22;16677;52.224;7.484;2022-07-24T14:43:52;30.90;1.00
29777;DHT22;16677;52.224;7.484;2022-07-24T14:46:19;30.20;1.00
29777;DHT22;16677;52.224;7.484;2022-07-24T14:48:46;30.30;1.00
29777;DHT22;16677;52.224;7.484;2022-07-24T14:51:13;30.60;1.00
29777;DHT22;16677;52.224;7.484;2022-07-24T14:53:40;30.50;1.00
29777;DHT22;16677;52.224;7.484;2022-07-24T14:56:07;30.90;1.00
29777;DHT22;16677;52.224;7.484;2022-07-24T14:58:34;31.00;1.00
29777;DHT22;16677;52.224;7.484;2022-07-24T15:01:01;31.10;1.00
29777;DHT22;16677;52.224;7.484;2022-07-24T15:03:28;31.00;1.00
29777;DHT22;16677;52.224;7.484;2022-07-24T15:05:55;30.10;1.00
29777;DHT22;16677;52.224;7.484;2022-07-24T15:08:22;30.40;1.00
29777;DHT22;16677;52.224;7.484;2022-07-24T15:10:49;31.00;1.00
29777;DHT22;16677;52.224;7.484;2022-07-24T15:13:16;31.60;1.00
29777;DHT22;16677;52.224;7.484;2022-07-24T15:15:44;31.80;1.00
29777;DHT22;16677;52.224;7.484;2022-07-24T15:18:11;30.80;1.00
29777;DHT22;16677;52.224;7.484;2022-07-24T15:20:38;30.50;1.00
29777;DHT22;16677;52.224;7.484;2022-07-24T15:23:05;31.00;1.00
29777;DHT22;16677;52.224;7.484;2022-07-24T15:25:33;31.40;1.00
29777;DHT22;16677;52.224;7.484;2022-07-24T15:28:00;31.50;1.00
29777;DHT22;16677;52.224;7.484;2022-07-24T15:30:27;31.40;1.00
29777;DHT22;16677;52.224;7.484;2022-07-24T15:32:57;30.90;1.00
29777;DHT22;16677;52.224;7.484;2022-07-24T15:35:29;31.10;1.00
29777;DHT22;16677;52.224;7.484;2022-07-24T15:37:57;31.20;1.00
29777;DHT22;16677;52.224;7.484;2022-07-24T15:40:24;31.50;1.00
29777;DHT22;16677;52.224;7.484;2022-07-24T15:42:54;31.60;1.00
29777;DHT22;16677;52.224;7.484;2022-07-24T15:45:21;31.60;1.00
29777;DHT22;16677;52.224;7.484;2022-07-24T15:47:49;32.00;1.00
29777;DHT22;16677;52.224;7.484;2022-07-24T15:50:16;32.40;1.00
29777;DHT22;16677;52.224;7.484;2022-07-24T15:52:44;33.00;1.00
29777;DHT22;16677;52.224;7.484;2022-07-24T15:55:10;33.30;1.00
29777;DHT22;16677;52.224;7.484;2022-07-24T15:57:45;32.80;1.00
29777;DHT22;16677;52.224;7.484;2022-07-24T16:00:12;33.00;1.00
29777;DHT22;16677;52.224;7.484;2022-07-24T16:02:39;33.00;1.00
29777;DHT22;16677;52.224;7.484;2022-07-24T16:05:07;33.20;1.00
29777;DHT22;16677;52.224;7.484;2022-07-24T16:07:34;33.10;1.00
29777;DHT22;16677;52.224;7.484;2022-07-24T16:10:01;33.40;1.00
29777;DHT22;16677;52.224;7.484;2022-07-24T16:12:29;34.10;1.00
29777;DHT22;16677;52.224;7.484;2022-07-24T16:14:56;34.10;1.00
29777;DHT22;16677;52.224;7.484;2022-07-24T16:17:24;34.00;1.00
29777;DHT22;16677;52.224;7.484;2022-07-24T16:19:52;33.00;1.00